Time,TemperatureF,DewpointF,PressureIn,WindDirection,WindDirectionDegrees,WindSpeedMPH,WindSpeedGustMPH,Humidity,HourlyPrecipIn,Conditions,Clouds,dailyrainin,SoftwareType,DateUTC
2013-08-06 00:02:00,52.4,49.6,30.03,WNW,297,0.0,0.0,90,0.00,,,0.00,Wunderground v.1.15,2013-08-06 04:02:00,
2013-08-06 00:04:00,52.4,49.6,30.03,WNW,297,0.0,0.0,90,0.00,,,0.00,Wunderground v.1.15,2013-08-06 04:04:00,
2013-08-06 00:06:00,52.4,49.6,30.03,WNW,297,0.0,0.0,90,0.00,,,0.00,Wunderground v.1.15,2013-08-06 04:06:00,
2013-08-06 00:10:00,52.5,49.9,30.03,WNW,297,0.0,0.0,91,0.00,,,0.00,Wunderground v.1.15,2013-08-06 04:10:00,
2013-08-06 00:12:00,52.4,49.8,30.03,WNW,297,0.0,0.0,91,0.00,,,0.00,Wunderground v.1.15,2013-08-06 04:12:00,
2013-08-06 00:18:00,52.4,49.6,30.03,WNW,297,0.0,0.0,90,0.00,,,0.00,Wunderground v.1.15,2013-08-06 04:18:00,
2013-08-06 00:24:00,52.4,49.8,30.03,WNW,297,0.0,0.0,91,0.00,,,0.00,Wunderground v.1.15,2013-08-06 04:24:00,
2013-08-06 00:30:00,52.4,49.8,30.03,WNW,297,0.0,0.0,91,0.00,,,0.00,Wunderground v.1.15,2013-08-06 04:30:00,
2013-08-06 00:36:00,52.4,49.8,30.03,WNW,297,0.0,0.0,91,0.00,,,0.00,Wunderground v.1.15,2013-08-06 04:36:00,
2013-08-06 00:42:00,52.4,49.8,30.03,WNW,297,0.0,0.0,91,0.00,,,0.00,Wunderground v.1.15,2013-08-06 04:42:00,
2013-08-06 00:48:00,52.7,50.4,30.03,WNW,297,0.0,0.0,92,0.00,,,0.00,Wunderground v.1.15,2013-08-06 04:48:00,
2013-08-06 00:54:00,52.9,50.6,30.03,WNW,297,0.0,0.0,92,0.00,,,0.00,Wunderground v.1.15,2013-08-06 04:54:00,
2013-08-06 01:00:00,53.0,50.7,30.03,WNW,297,0.0,0.0,92,0.00,,,0.00,Wunderground v.1.15,2013-08-06 05:00:00,
2013-08-06 01:06:00,53.0,50.7,30.03,WNW,297,0.0,0.0,92,0.00,,,0.00,Wunderground v.1.15,2013-08-06 05:06:00,
2013-08-06 01:12:00,53.0,50.7,30.03,WNW,297,0.0,0.0,92,0.00,,,0.00,Wunderground v.1.15,2013-08-06 05:12:00,
2013-08-06 01:18:00,53.1,50.8,30.03,WNW,297,0.0,0.0,92,0.00,,,0.00,Wunderground v.1.15,2013-08-06 05:18:00,
2013-08-06 01:24:00,53.1,50.8,30.03,WNW,297,0.0,0.0,92,0.00,,,0.00,Wunderground v.1.15,2013-08-06 05:24:00,
2013-08-06 01:30:00,53.1,50.8,30.02,WNW,297,0.0,0.0,92,0.00,,,0.00,Wunderground v.1.15,2013-08-06 05:30:00,
2013-08-06 01:36:00,53.0,50.4,30.02,WNW,297,0.0,0.0,91,0.00,,,0.00,Wunderground v.1.15,2013-08-06 05:36:00,
2013-08-06 01:42:00,52.7,50.1,30.02,WNW,297,0.0,0.0,91,0.00,,,0.00,Wunderground v.1.15,2013-08-06 05:42:00,
2013-08-06 01:48:00,52.5,49.9,30.02,WNW,297,0.0,0.0,91,0.00,,,0.00,Wunderground v.1.15,2013-08-06 05:48:00,
2013-08-06 01:54:00,52.3,49.8,30.02,WNW,297,0.0,0.0,91,0.00,,,0.00,Wunderground v.1.15,2013-08-06 05:54:00,
2013-08-06 02:00:00,51.8,49.3,30.02,WNW,297,0.0,0.0,91,0.00,,,0.00,Wunderground v.1.15,2013-08-06 06:00:00,
2013-08-06 02:06:00,51.6,49.1,30.02,WNW,297,0.0,0.0,91,0.00,,,0.00,Wunderground v.1.15,2013-08-06 06:06:00,
2013-08-06 02:12:00,51.5,49.0,30.02,WNW,297,0.0,0.0,91,0.00,,,0.00,Wunderground v.1.15,2013-08-06 06:12:00,
2013-08-06 02:18:00,51.3,48.8,30.02,WNW,297,0.0,0.0,91,0.00,,,0.00,Wunderground v.1.15,2013-08-06 06:18:00,
2013-08-06 02:24:00,51.1,48.6,30.02,WNW,297,0.0,0.0,91,0.00,,,0.00,Wunderground v.1.15,2013-08-06 06:24:00,
2013-08-06 02:30:00,50.8,48.3,30.02,WNW,297,0.0,0.0,91,0.00,,,0.00,Wunderground v.1.15,2013-08-06 06:30:00,
2013-08-06 02:36:00,50.5,48.0,30.02,WNW,297,0.0,0.0,91,0.00,,,0.00,Wunderground v.1.15,2013-08-06 06:36:00,
2013-08-06 02:42:00,50.5,48.0,30.02,WNW,297,0.0,0.0,91,0.00,,,0.00,Wunderground v.1.15,2013-08-06 06:42:00,
2013-08-06 02:48:00,50.4,48.2,30.02,WNW,297,0.0,0.0,92,0.00,,,0.00,Wunderground v.1.15,2013-08-06 06:48:00,
2013-08-06 02:54:00,50.1,47.9,30.02,WNW,297,0.0,0.0,92,0.00,,,0.00,Wunderground v.1.15,2013-08-06 06:54:00,
2013-08-06 03:00:00,50.0,47.5,30.02,WNW,297,0.0,0.0,91,0.00,,,0.00,Wunderground v.1.15,2013-08-06 07:00:00,
2013-08-06 03:06:00,50.0,47.8,30.02,WNW,297,0.0,0.0,92,0.00,,,0.00,Wunderground v.1.15,2013-08-06 07:06:00,
2013-08-06 03:12:00,50.1,47.9,30.02,WNW,297,0.0,0.0,92,0.00,,,0.00,Wunderground v.1.15,2013-08-06 07:12:00,
2013-08-06 03:18:00,50.2,48.0,30.02,WNW,297,0.0,0.0,92,0.00,,,0.00,Wunderground v.1.15,2013-08-06 07:18:00,
2013-08-06 03:24:00,50.4,48.2,30.02,WNW,297,0.0,0.0,92,0.00,,,0.00,Wunderground v.1.15,2013-08-06 07:24:00,
2013-08-06 03:30:00,50.7,48.7,30.02,WNW,297,0.0,0.0,93,0.00,,,0.00,Wunderground v.1.15,2013-08-06 07:30:00,
2013-08-06 03:36:00,50.9,48.9,30.02,WNW,297,0.0,0.0,93,0.00,,,0.00,Wunderground v.1.15,2013-08-06 07:36:00,
2013-08-06 03:42:00,51.0,49.0,30.02,WNW,297,0.0,0.0,93,0.00,,,0.00,Wunderground v.1.15,2013-08-06 07:42:00,
2013-08-06 03:48:00,50.9,48.9,30.01,WNW,297,0.0,0.0,93,0.00,,,0.00,Wunderground v.1.15,2013-08-06 07:48:00,
2013-08-06 03:54:00,50.8,48.8,30.01,WNW,297,0.0,0.0,93,0.00,,,0.00,Wunderground v.1.15,2013-08-06 07:54:00,
2013-08-06 04:00:00,50.7,48.7,30.01,WNW,297,0.0,0.0,93,0.00,,,0.00,Wunderground v.1.15,2013-08-06 08:00:00,
2013-08-06 04:06:00,50.6,48.7,30.01,WNW,297,0.0,0.0,93,0.00,,,0.00,Wunderground v.1.15,2013-08-06 08:06:00,
2013-08-06 04:12:00,50.8,48.8,30.01,WNW,297,0.0,0.0,93,0.00,,,0.00,Wunderground v.1.15,2013-08-06 08:12:00,
2013-08-06 04:18:00,51.1,49.1,30.01,WNW,297,0.0,0.0,93,0.00,,,0.00,Wunderground v.1.15,2013-08-06 08:18:00,
2013-08-06 04:24:00,51.2,49.2,30.01,WNW,297,0.0,0.0,93,0.00,,,0.00,Wunderground v.1.15,2013-08-06 08:24:00,
2013-08-06 04:30:00,51.4,49.4,30.01,WNW,297,0.0,1.0,93,0.00,,,0.00,Wunderground v.1.15,2013-08-06 08:30:00,
2013-08-06 04:36:00,51.5,49.5,30.01,WNW,297,1.0,2.0,93,0.00,,,0.00,Wunderground v.1.15,2013-08-06 08:36:00,
2013-08-06 04:42:00,51.7,49.7,30.01,WNW,297,1.0,3.0,93,0.00,,,0.00,Wunderground v.1.15,2013-08-06 08:42:00,
2013-08-06 04:48:00,51.5,49.5,30.01,WNW,297,1.0,3.0,93,0.00,,,0.00,Wunderground v.1.15,2013-08-06 08:48:00,
2013-08-06 04:54:00,51.3,49.3,30.01,WNW,297,1.0,2.0,93,0.00,,,0.00,Wunderground v.1.15,2013-08-06 08:54:00,
2013-08-06 05:00:00,50.9,48.7,30.01,WNW,297,0.0,0.0,92,0.00,,,0.00,Wunderground v.1.15,2013-08-06 09:00:00,
2013-08-06 05:06:00,50.7,48.5,30.01,WNW,297,1.0,2.0,92,0.00,,,0.00,Wunderground v.1.15,2013-08-06 09:06:00,
2013-08-06 05:12:00,50.6,48.4,30.01,WNW,297,1.0,1.0,92,0.00,,,0.00,Wunderground v.1.15,2013-08-06 09:12:00,
2013-08-06 05:18:00,50.6,48.4,30.01,WNW,297,0.0,1.0,92,0.00,,,0.00,Wunderground v.1.15,2013-08-06 09:18:00,
2013-08-06 05:24:00,50.4,48.2,30.01,WNW,298,0.0,3.0,92,0.00,,,0.00,Wunderground v.1.15,2013-08-06 09:24:00,
2013-08-06 05:30:00,50.2,48.0,30.01,WNW,298,1.0,1.0,92,0.00,,,0.00,Wunderground v.1.15,2013-08-06 09:30:00,
2013-08-06 05:36:00,49.9,47.7,30.01,WNW,298,1.0,2.0,92,0.00,,,0.00,Wunderground v.1.15,2013-08-06 09:36:00,
2013-08-06 05:42:00,49.8,47.6,30.01,WNW,298,1.0,1.0,92,0.00,,,0.00,Wunderground v.1.15,2013-08-06 09:42:00,
2013-08-06 05:48:00,49.8,47.6,30.02,WNW,298,1.0,2.0,92,0.00,,,0.00,Wunderground v.1.15,2013-08-06 09:48:00,
2013-08-06 05:54:00,49.9,47.7,30.01,WNW,298,1.0,1.0,92,0.00,,,0.00,Wunderground v.1.15,2013-08-06 09:54:00,
2013-08-06 06:00:00,49.8,47.6,30.01,WNW,298,1.0,2.0,92,0.00,,,0.00,Wunderground v.1.15,2013-08-06 10:00:00,
2013-08-06 06:06:00,49.9,47.7,30.01,WNW,298,1.0,2.0,92,0.00,,,0.00,Wunderground v.1.15,2013-08-06 10:06:00,
2013-08-06 06:12:00,49.9,47.7,30.01,WNW,298,0.0,2.0,92,0.00,,,0.00,Wunderground v.1.15,2013-08-06 10:12:00,
2013-08-06 06:18:00,50.1,48.2,30.01,WNW,299,1.0,2.0,93,0.00,,,0.00,Wunderground v.1.15,2013-08-06 10:18:00,
2013-08-06 06:24:00,50.5,48.6,30.01,WNW,299,1.0,2.0,93,0.00,,,0.00,Wunderground v.1.15,2013-08-06 10:24:00,
2013-08-06 06:30:00,50.5,48.6,30.01,WNW,299,1.0,1.0,93,0.00,,,0.00,Wunderground v.1.15,2013-08-06 10:30:00,
2013-08-06 06:36:00,50.4,48.5,30.01,WNW,299,0.0,1.0,93,0.00,,,0.00,Wunderground v.1.15,2013-08-06 10:36:00,
2013-08-06 06:42:00,50.5,48.6,30.01,ENE,66,1.0,1.0,93,0.00,,,0.00,Wunderground v.1.15,2013-08-06 10:42:00,
2013-08-06 06:48:00,51.0,49.0,30.01,ENE,66,1.0,1.0,93,0.00,,,0.00,Wunderground v.1.15,2013-08-06 10:48:00,
2013-08-06 06:54:00,51.5,49.8,30.01,ENE,66,0.0,1.0,94,0.00,,,0.00,Wunderground v.1.15,2013-08-06 10:54:00,
2013-08-06 07:00:00,51.8,50.1,30.02,ENE,66,0.0,0.0,94,0.00,,,0.00,Wunderground v.1.15,2013-08-06 11:00:00,
2013-08-06 07:06:00,52.0,50.0,30.02,ENE,66,0.0,0.0,93,0.00,,,0.00,Wunderground v.1.15,2013-08-06 11:06:00,
2013-08-06 07:12:00,51.9,49.9,30.02,ENE,66,0.0,0.0,93,0.00,,,0.00,Wunderground v.1.15,2013-08-06 11:12:00,
2013-08-06 07:18:00,51.8,49.8,30.02,ENE,66,0.0,2.0,93,0.00,,,0.00,Wunderground v.1.15,2013-08-06 11:18:00,
2013-08-06 07:24:00,52.2,50.2,30.02,ENE,65,1.0,2.0,93,0.00,,,0.00,Wunderground v.1.15,2013-08-06 11:24:00,
2013-08-06 07:30:00,52.8,50.8,30.02,ENE,65,2.0,3.0,93,0.00,,,0.00,Wunderground v.1.15,2013-08-06 11:30:00,
2013-08-06 07:36:00,53.3,51.0,30.02,NE,55,1.0,3.0,92,0.00,,,0.00,Wunderground v.1.15,2013-08-06 11:36:00,
2013-08-06 07:42:00,54.0,51.4,30.02,ENE,57,1.0,3.0,91,0.00,,,0.00,Wunderground v.1.15,2013-08-06 11:42:00,
2013-08-06 07:48:00,55.0,52.1,30.02,ENE,65,1.0,5.0,90,0.00,,,0.00,Wunderground v.1.15,2013-08-06 11:48:00,
2013-08-06 07:54:00,56.4,52.9,30.02,NE,34,2.0,5.0,88,0.00,,,0.00,Wunderground v.1.15,2013-08-06 11:54:00,
2013-08-06 08:00:00,57.0,53.5,30.02,NNE,26,4.0,4.0,88,0.00,,,0.00,Wunderground v.1.15,2013-08-06 12:00:00,
2013-08-06 08:06:00,57.0,53.5,30.02,NE,36,4.0,5.0,88,0.00,,,0.00,Wunderground v.1.15,2013-08-06 12:06:00,
2013-08-06 08:12:00,57.2,53.7,30.02,ENE,61,4.0,5.0,88,0.00,,,0.00,Wunderground v.1.15,2013-08-06 12:12:00,
2013-08-06 08:18:00,58.2,54.3,30.02,ENE,60,3.0,5.0,87,0.00,,,0.00,Wunderground v.1.15,2013-08-06 12:18:00,
2013-08-06 08:24:00,59.0,55.1,30.03,NNE,30,3.0,5.0,87,0.00,,,0.00,Wunderground v.1.15,2013-08-06 12:24:00,
2013-08-06 08:30:00,60.0,55.5,30.03,NNE,30,4.0,4.0,85,0.00,,,0.00,Wunderground v.1.15,2013-08-06 12:30:00,
2013-08-06 08:36:00,61.0,55.8,30.03,ENE,62,4.0,4.0,83,0.00,,,0.00,Wunderground v.1.15,2013-08-06 12:36:00,
2013-08-06 08:42:00,61.9,56.0,30.03,ENE,62,3.0,4.0,81,0.00,,,0.00,Wunderground v.1.15,2013-08-06 12:42:00,
2013-08-06 08:48:00,62.8,56.9,30.03,ENE,67,3.0,5.0,81,0.00,,,0.00,Wunderground v.1.15,2013-08-06 12:48:00,
2013-08-06 08:54:00,63.1,56.5,30.03,East,82,3.0,5.0,79,0.00,,,0.00,Wunderground v.1.15,2013-08-06 12:54:00,
2013-08-06 09:00:00,64.1,57.8,30.03,ENE,59,3.0,4.0,80,0.00,,,0.00,Wunderground v.1.15,2013-08-06 13:00:00,
2013-08-06 09:06:00,63.7,56.7,30.03,ENE,67,3.0,4.0,78,0.00,,,0.00,Wunderground v.1.15,2013-08-06 13:06:00,
2013-08-06 09:12:00,63.6,57.0,30.02,ENE,67,2.0,3.0,79,0.00,,,0.00,Wunderground v.1.15,2013-08-06 13:12:00,
2013-08-06 09:18:00,63.8,57.2,30.02,ENE,67,1.0,3.0,79,0.00,,,0.00,Wunderground v.1.15,2013-08-06 13:18:00,
2013-08-06 09:24:00,64.3,57.6,30.03,ENE,67,1.0,2.0,79,0.00,,,0.00,Wunderground v.1.15,2013-08-06 13:24:00,
2013-08-06 09:30:00,65.1,58.1,30.02,NNE,19,1.0,2.0,78,0.00,,,0.00,Wunderground v.1.15,2013-08-06 13:30:00,
2013-08-06 09:36:00,65.4,58.4,30.03,NNE,28,1.0,3.0,78,0.00,,,0.00,Wunderground v.1.15,2013-08-06 13:36:00,
2013-08-06 09:42:00,65.7,57.6,30.03,NNE,28,1.0,2.0,75,0.00,,,0.00,Wunderground v.1.15,2013-08-06 13:42:00,
2013-08-06 09:48:00,66.2,58.0,30.03,NNE,28,1.0,2.0,75,0.00,,,0.00,Wunderground v.1.15,2013-08-06 13:48:00,
2013-08-06 09:54:00,66.3,57.8,30.03,ENE,61,0.0,2.0,74,0.00,,,0.00,Wunderground v.1.15,2013-08-06 13:54:00,
2013-08-06 10:00:00,66.2,57.3,30.03,ENE,61,0.0,0.0,73,0.00,,,0.00,Wunderground v.1.15,2013-08-06 14:00:00,
2013-08-06 10:06:00,66.0,57.8,30.03,ENE,61,0.0,1.0,75,0.00,,,0.00,Wunderground v.1.15,2013-08-06 14:06:00,
2013-08-06 10:12:00,66.1,58.3,30.03,ENE,61,1.0,3.0,76,0.00,,,0.00,Wunderground v.1.15,2013-08-06 14:12:00,
2013-08-06 10:18:00,66.2,58.0,30.03,ENE,61,1.0,3.0,75,0.00,,,0.00,Wunderground v.1.15,2013-08-06 14:18:00,
2013-08-06 10:24:00,66.4,59.3,30.03,ENE,60,2.0,3.0,78,0.00,,,0.00,Wunderground v.1.15,2013-08-06 14:24:00,
2013-08-06 10:30:00,67.7,59.1,30.02,NNE,32,4.0,4.0,74,0.00,,,0.00,Wunderground v.1.15,2013-08-06 14:30:00,
2013-08-06 10:36:00,68.3,59.3,30.02,NE,49,5.0,5.0,73,0.00,,,0.00,Wunderground v.1.15,2013-08-06 14:36:00,
2013-08-06 10:42:00,68.8,59.0,30.03,NE,47,3.0,3.0,71,0.00,,,0.00,Wunderground v.1.15,2013-08-06 14:42:00,
2013-08-06 10:48:00,70.1,59.5,30.03,NNE,18,0.0,3.0,69,0.00,,,0.00,Wunderground v.1.15,2013-08-06 14:48:00,
2013-08-06 10:54:00,69.3,58.7,30.03,NE,34,1.0,1.0,69,0.00,,,0.00,Wunderground v.1.15,2013-08-06 14:54:00,
2013-08-06 11:00:00,68.8,59.4,30.03,NE,48,2.0,2.0,72,0.00,,,0.00,Wunderground v.1.15,2013-08-06 15:00:00,
2013-08-06 11:06:00,69.6,60.2,30.03,NE,48,1.0,2.0,72,0.00,,,0.00,Wunderground v.1.15,2013-08-06 15:06:00,
2013-08-06 11:12:00,69.8,59.6,30.03,NE,48,0.0,0.0,70,0.00,,,0.00,Wunderground v.1.15,2013-08-06 15:12:00,
2013-08-06 11:18:00,70.6,60.7,30.03,NE,47,0.0,1.0,71,0.00,,,0.00,Wunderground v.1.15,2013-08-06 15:18:00,
2013-08-06 11:24:00,71.5,62.4,30.03,ENE,63,0.0,3.0,73,0.00,,,0.00,Wunderground v.1.15,2013-08-06 15:24:00,
2013-08-06 11:30:00,71.6,60.9,30.03,East,79,1.0,1.0,69,0.00,,,0.00,Wunderground v.1.15,2013-08-06 15:30:00,
2013-08-06 11:36:00,72.8,60.8,30.03,East,100,0.0,3.0,66,0.00,,,0.00,Wunderground v.1.15,2013-08-06 15:36:00,
2013-08-06 11:42:00,72.1,61.8,30.03,ESE,107,1.0,1.0,70,0.00,,,0.00,Wunderground v.1.15,2013-08-06 15:42:00,
2013-08-06 11:48:00,71.5,61.2,30.03,North,11,1.0,4.0,70,0.00,,,0.00,Wunderground v.1.15,2013-08-06 15:48:00,
2013-08-06 11:54:00,71.5,61.6,30.03,NW,306,2.0,4.0,71,0.00,,,0.00,Wunderground v.1.15,2013-08-06 15:54:00,
2013-08-06 12:00:00,72.9,62.1,30.03,SSE,152,1.0,1.0,69,0.00,,,0.00,Wunderground v.1.15,2013-08-06 16:00:00,
2013-08-06 12:06:00,73.0,62.2,30.03,South,175,1.0,1.0,69,0.00,,,0.00,Wunderground v.1.15,2013-08-06 16:06:00,
2013-08-06 12:12:00,72.1,61.4,30.03,NNW,348,1.0,1.0,69,0.00,,,0.00,Wunderground v.1.15,2013-08-06 16:12:00,
2013-08-06 12:18:00,73.0,62.6,30.02,ESE,106,1.0,1.0,70,0.00,,,0.00,Wunderground v.1.15,2013-08-06 16:18:00,
2013-08-06 12:24:00,73.8,63.0,30.02,SE,140,1.0,3.0,69,0.00,,,0.00,Wunderground v.1.15,2013-08-06 16:24:00,
2013-08-06 12:30:00,74.6,64.6,30.03,ESE,120,2.0,4.0,71,0.00,,,0.00,Wunderground v.1.15,2013-08-06 16:30:00,
2013-08-06 12:36:00,76.7,63.2,30.02,SSE,151,4.0,7.0,63,0.00,,,0.00,Wunderground v.1.15,2013-08-06 16:36:00,
2013-08-06 12:42:00,77.4,63.4,30.02,SE,144,4.0,5.0,62,0.00,,,0.00,Wunderground v.1.15,2013-08-06 16:42:00,
2013-08-06 12:48:00,77.7,63.6,30.02,ESE,103,4.0,7.0,62,0.00,,,0.00,Wunderground v.1.15,2013-08-06 16:48:00,
2013-08-06 12:54:00,75.7,63.1,30.02,ENE,61,4.0,4.0,65,0.00,,,0.00,Wunderground v.1.15,2013-08-06 16:54:00,
2013-08-06 13:00:00,77.4,63.8,30.02,SSE,167,4.0,4.0,63,0.00,,,0.00,Wunderground v.1.15,2013-08-06 17:00:00,
2013-08-06 13:06:00,77.2,64.1,30.02,SE,125,4.0,5.0,64,0.00,,,0.00,Wunderground v.1.15,2013-08-06 17:06:00,
2013-08-06 13:12:00,76.6,64.4,30.02,ENE,61,2.0,3.0,66,0.00,,,0.00,Wunderground v.1.15,2013-08-06 17:12:00,
2013-08-06 13:18:00,76.2,63.6,30.02,ESE,122,2.0,8.0,65,0.00,,,0.00,Wunderground v.1.15,2013-08-06 17:18:00,
2013-08-06 13:24:00,76.4,62.9,30.01,ESE,115,5.0,10.0,63,0.00,,,0.00,Wunderground v.1.15,2013-08-06 17:24:00,
2013-08-06 13:30:00,77.3,63.3,30.01,SE,129,6.0,11.0,62,0.00,,,0.00,Wunderground v.1.15,2013-08-06 17:30:00,
2013-08-06 13:36:00,78.5,63.9,30.01,SE,137,7.0,11.0,61,0.00,,,0.00,Wunderground v.1.15,2013-08-06 17:36:00,
2013-08-06 13:42:00,76.5,62.5,30.02,SE,136,7.0,8.0,62,0.00,,,0.00,Wunderground v.1.15,2013-08-06 17:42:00,
2013-08-06 13:48:00,76.6,63.1,30.01,SSE,166,7.0,8.0,63,0.00,,,0.00,Wunderground v.1.15,2013-08-06 17:48:00,
2013-08-06 13:54:00,77.9,63.4,30.01,SSE,148,7.0,12.0,61,0.00,,,0.00,Wunderground v.1.15,2013-08-06 17:54:00,
2013-08-06 14:00:00,78.1,63.6,30.01,ENE,68,8.0,8.0,61,0.00,,,0.00,Wunderground v.1.15,2013-08-06 18:00:00,
2013-08-06 14:06:00,77.6,63.5,30.01,NE,36,5.0,10.0,62,0.00,,,0.00,Wunderground v.1.15,2013-08-06 18:06:00,
2013-08-06 14:12:00,77.7,63.2,30.01,ESE,111,7.0,8.0,61,0.00,,,0.00,Wunderground v.1.15,2013-08-06 18:12:00,
2013-08-06 14:18:00,76.3,63.2,30.01,ENE,63,8.0,9.0,64,0.00,,,0.00,Wunderground v.1.15,2013-08-06 18:18:00,
2013-08-06 14:24:00,75.7,63.1,30.01,SE,130,7.0,9.0,65,0.00,,,0.00,Wunderground v.1.15,2013-08-06 18:24:00,
2013-08-06 14:30:00,75.2,62.6,30.01,ENE,63,7.0,8.0,65,0.00,,,0.00,Wunderground v.1.15,2013-08-06 18:30:00,
2013-08-06 14:36:00,75.6,62.6,30.01,SE,127,7.0,11.0,64,0.00,,,0.00,Wunderground v.1.15,2013-08-06 18:36:00,
2013-08-06 14:42:00,76.2,61.8,30.01,ESE,115,9.0,12.0,61,0.00,,,0.00,Wunderground v.1.15,2013-08-06 18:42:00,
2013-08-06 14:48:00,77.4,62.4,30.02,ESE,111,8.0,12.0,60,0.00,,,0.00,Wunderground v.1.15,2013-08-06 18:48:00,
2013-08-06 14:54:00,76.6,62.6,30.02,East,88,6.0,8.0,62,0.00,,,0.00,Wunderground v.1.15,2013-08-06 18:54:00,
2013-08-06 15:00:00,75.5,62.9,30.02,ENE,76,5.0,5.0,65,0.00,,,0.00,Wunderground v.1.15,2013-08-06 19:00:00,
2013-08-06 15:06:00,76.7,64.0,30.02,ESE,105,4.0,5.0,65,0.00,,,0.00,Wunderground v.1.15,2013-08-06 19:06:00,
2013-08-06 15:12:00,75.6,61.7,30.02,SE,132,5.0,7.0,62,0.00,,,0.00,Wunderground v.1.15,2013-08-06 19:12:00,
2013-08-06 15:18:00,75.8,63.2,30.01,SE,125,5.0,7.0,65,0.00,,,0.00,Wunderground v.1.15,2013-08-06 19:18:00,
2013-08-06 15:24:00,76.6,62.1,30.01,SE,146,5.0,6.0,61,0.00,,,0.00,Wunderground v.1.15,2013-08-06 19:24:00,
2013-08-06 15:30:00,75.9,61.0,30.01,SE,131,6.0,9.0,60,0.00,,,0.00,Wunderground v.1.15,2013-08-06 19:30:00,
2013-08-06 15:36:00,76.0,61.1,30.01,SSE,159,6.0,9.0,60,0.00,,,0.00,Wunderground v.1.15,2013-08-06 19:36:00,
2013-08-06 15:42:00,76.0,61.6,30.01,SE,144,4.0,5.0,61,0.00,,,0.00,Wunderground v.1.15,2013-08-06 19:42:00,
2013-08-06 15:48:00,76.2,61.8,30.01,SE,146,3.0,5.0,61,0.00,,,0.00,Wunderground v.1.15,2013-08-06 19:48:00,
2013-08-06 15:54:00,77.0,62.0,30.01,South,182,2.0,2.0,60,0.00,,,0.00,Wunderground v.1.15,2013-08-06 19:54:00,
2013-08-06 16:00:00,78.2,62.2,30.01,South,169,3.0,4.0,58,0.00,,,0.00,Wunderground v.1.15,2013-08-06 20:00:00,
2013-08-06 16:06:00,79.5,61.9,30.01,SE,138,4.0,8.0,55,0.00,,,0.00,Wunderground v.1.15,2013-08-06 20:06:00,
2013-08-06 16:12:00,80.1,62.0,30.01,SSE,163,4.0,6.0,54,0.00,,,0.00,Wunderground v.1.15,2013-08-06 20:12:00,
2013-08-06 16:18:00,79.6,62.5,30.01,SE,140,4.0,7.0,56,0.00,,,0.00,Wunderground v.1.15,2013-08-06 20:18:00,
2013-08-06 16:24:00,80.0,62.4,30.01,South,184,4.0,9.0,55,0.00,,,0.00,Wunderground v.1.15,2013-08-06 20:24:00,
2013-08-06 16:30:00,79.4,63.3,30.01,SE,142,5.0,5.0,58,0.00,,,0.00,Wunderground v.1.15,2013-08-06 20:30:00,
2013-08-06 16:32:00,80.1,62.5,30.01,SE,126,5.0,8.0,55,0.00,,,0.00,Wunderground v.1.15,2013-08-06 20:32:00,
2013-08-06 16:38:00,80.5,62.8,30.01,South,182,7.0,14.0,55,0.00,,,0.00,Wunderground v.1.15,2013-08-06 20:38:00,
2013-08-06 16:44:00,78.3,61.8,30.01,South,185,7.0,8.0,57,0.00,,,0.00,Wunderground v.1.15,2013-08-06 20:44:00,
2013-08-06 16:50:00,76.7,61.8,30.00,SSE,166,4.0,4.0,60,0.00,,,0.00,Wunderground v.1.15,2013-08-06 20:50:00,
2013-08-06 16:56:00,76.8,62.8,30.01,South,188,4.0,7.0,62,0.00,,,0.00,Wunderground v.1.15,2013-08-06 20:56:00,
2013-08-06 17:02:00,78.8,63.3,30.00,SSE,153,5.0,5.0,59,0.00,,,0.00,Wunderground v.1.15,2013-08-06 21:02:00,
2013-08-06 17:08:00,79.6,62.0,30.00,SSE,155,4.0,6.0,55,0.00,,,0.00,Wunderground v.1.15,2013-08-06 21:08:00,
2013-08-06 17:14:00,78.9,61.4,30.00,East,98,3.0,8.0,55,0.00,,,0.00,Wunderground v.1.15,2013-08-06 21:14:00,
2013-08-06 17:20:00,79.1,63.1,30.00,SSW,194,5.0,5.0,58,0.00,,,0.00,Wunderground v.1.15,2013-08-06 21:20:00,
2013-08-06 17:26:00,80.1,62.5,30.01,SSE,159,4.0,6.0,55,0.00,,,0.00,Wunderground v.1.15,2013-08-06 21:26:00,
2013-08-06 17:32:00,77.8,61.8,30.01,SSE,159,4.0,13.0,58,0.00,,,0.00,Wunderground v.1.15,2013-08-06 21:32:00,
2013-08-06 17:38:00,76.0,61.6,30.00,SE,144,6.0,13.0,61,0.00,,,0.00,Wunderground v.1.15,2013-08-06 21:38:00,
2013-08-06 17:44:00,75.8,61.8,30.00,South,177,5.0,8.0,62,0.00,,,0.00,Wunderground v.1.15,2013-08-06 21:44:00,
2013-08-06 17:50:00,76.4,62.4,30.00,SSE,164,2.0,5.0,62,0.00,,,0.00,Wunderground v.1.15,2013-08-06 21:50:00,
2013-08-06 17:56:00,77.1,61.7,30.00,ESE,121,4.0,9.0,59,0.00,,,0.00,Wunderground v.1.15,2013-08-06 21:56:00,
2013-08-06 18:02:00,76.6,62.1,30.00,South,169,6.0,7.0,61,0.00,,,0.00,Wunderground v.1.15,2013-08-06 22:02:00,
2013-08-06 18:08:00,76.4,62.4,30.00,SSE,159,6.0,9.0,62,0.00,,,0.00,Wunderground v.1.15,2013-08-06 22:08:00,
2013-08-06 18:14:00,76.5,62.0,30.00,ESE,111,8.0,11.0,61,0.00,,,0.00,Wunderground v.1.15,2013-08-06 22:14:00,
2013-08-06 18:20:00,75.7,62.7,30.00,South,179,5.0,7.0,64,0.00,,,0.00,Wunderground v.1.15,2013-08-06 22:20:00,
2013-08-06 18:26:00,75.9,61.9,30.00,ESE,120,5.0,7.0,62,0.00,,,0.00,Wunderground v.1.15,2013-08-06 22:26:00,
2013-08-06 18:32:00,75.6,62.1,30.00,SE,128,6.0,6.0,63,0.00,,,0.00,Wunderground v.1.15,2013-08-06 22:32:00,
2013-08-06 18:38:00,74.7,62.6,30.00,South,171,5.0,6.0,66,0.00,,,0.00,Wunderground v.1.15,2013-08-06 22:38:00,
2013-08-06 18:44:00,75.6,63.0,30.00,SSE,155,3.0,4.0,65,0.00,,,0.00,Wunderground v.1.15,2013-08-06 22:44:00,
2013-08-06 18:50:00,75.8,62.8,30.00,SE,135,3.0,3.0,64,0.00,,,0.00,Wunderground v.1.15,2013-08-06 22:50:00,
2013-08-06 18:56:00,75.8,63.2,30.00,SSE,163,4.0,5.0,65,0.00,,,0.00,Wunderground v.1.15,2013-08-06 22:56:00,
2013-08-06 19:02:00,75.1,63.0,30.00,SE,126,5.0,6.0,66,0.00,,,0.00,Wunderground v.1.15,2013-08-06 23:02:00,
2013-08-06 19:08:00,74.4,63.6,30.00,SSE,153,4.0,6.0,69,0.00,,,0.00,Wunderground v.1.15,2013-08-06 23:08:00,
2013-08-06 19:14:00,75.0,63.7,30.01,SE,136,1.0,3.0,68,0.00,,,0.00,Wunderground v.1.15,2013-08-06 23:14:00,
2013-08-06 19:20:00,74.9,63.2,30.01,SSE,159,2.0,7.0,67,0.00,,,0.00,Wunderground v.1.15,2013-08-06 23:20:00,
2013-08-06 19:26:00,74.4,63.1,30.00,SE,138,4.0,7.0,68,0.00,,,0.00,Wunderground v.1.15,2013-08-06 23:26:00,
2013-08-06 19:32:00,73.9,62.7,30.00,South,188,3.0,4.0,68,0.00,,,0.00,Wunderground v.1.15,2013-08-06 23:32:00,
2013-08-06 19:38:00,73.8,63.0,30.01,SSE,165,2.0,4.0,69,0.00,,,0.00,Wunderground v.1.15,2013-08-06 23:38:00,
2013-08-06 19:44:00,73.3,62.9,30.01,SSE,166,1.0,2.0,70,0.00,,,0.00,Wunderground v.1.15,2013-08-06 23:44:00,
2013-08-06 19:50:00,73.0,63.0,30.01,SSE,153,2.0,2.0,71,0.00,,,0.00,Wunderground v.1.15,2013-08-06 23:50:00,
2013-08-06 19:56:00,72.7,63.1,30.01,SE,146,2.0,3.0,72,0.00,,,0.00,Wunderground v.1.15,2013-08-06 23:56:00,
2013-08-06 20:02:00,72.1,63.0,30.01,SE,125,2.0,2.0,73,0.00,,,0.00,Wunderground v.1.15,2013-08-07 00:02:00,
2013-08-06 20:08:00,71.8,63.1,30.01,SE,125,1.0,2.0,74,0.00,,,0.00,Wunderground v.1.15,2013-08-07 00:08:00,
2013-08-06 20:14:00,71.3,63.0,30.01,SE,128,0.0,1.0,75,0.00,,,0.00,Wunderground v.1.15,2013-08-07 00:14:00,
2013-08-06 20:20:00,70.8,62.9,30.01,SE,141,0.0,0.0,76,0.00,,,0.00,Wunderground v.1.15,2013-08-07 00:20:00,
2013-08-06 20:26:00,70.4,62.5,30.01,SSE,150,0.0,0.0,76,0.00,,,0.00,Wunderground v.1.15,2013-08-07 00:26:00,
2013-08-06 20:32:00,69.7,62.5,30.01,SSE,150,0.0,0.0,78,0.00,,,0.00,Wunderground v.1.15,2013-08-07 00:32:00,
2013-08-06 20:38:00,68.3,62.2,30.01,SSE,150,0.0,0.0,81,0.00,,,0.00,Wunderground v.1.15,2013-08-07 00:38:00,
2013-08-06 20:44:00,67.5,61.8,30.02,SSE,150,0.0,0.0,82,0.00,,,0.00,Wunderground v.1.15,2013-08-07 00:44:00,
2013-08-06 20:50:00,66.6,61.3,30.02,SSE,150,0.0,0.0,83,0.00,,,0.00,Wunderground v.1.15,2013-08-07 00:50:00,
2013-08-06 20:56:00,66.0,60.7,30.02,SSE,150,0.0,0.0,83,0.00,,,0.00,Wunderground v.1.15,2013-08-07 00:56:00,
2013-08-06 21:02:00,64.9,59.9,30.02,SSE,159,1.0,1.0,84,0.00,,,0.00,Wunderground v.1.15,2013-08-07 01:02:00,
2013-08-06 21:08:00,64.2,59.6,30.02,SSE,163,1.0,1.0,85,0.00,,,0.00,Wunderground v.1.15,2013-08-07 01:08:00,
2013-08-06 21:14:00,63.6,59.3,30.02,SSE,163,0.0,0.0,86,0.00,,,0.00,Wunderground v.1.15,2013-08-07 01:14:00,
2013-08-06 21:20:00,63.2,58.9,30.02,SSE,163,0.0,2.0,86,0.00,,,0.00,Wunderground v.1.15,2013-08-07 01:20:00,
2013-08-06 21:26:00,62.8,58.9,30.03,South,173,0.0,2.0,87,0.00,,,0.00,Wunderground v.1.15,2013-08-07 01:26:00,
2013-08-06 21:32:00,62.3,58.4,30.03,South,173,0.0,0.0,87,0.00,,,0.00,Wunderground v.1.15,2013-08-07 01:32:00,
2013-08-06 21:38:00,61.8,57.9,30.03,South,173,0.0,0.0,87,0.00,,,0.00,Wunderground v.1.15,2013-08-07 01:38:00,
2013-08-06 21:44:00,61.5,57.9,30.03,SSE,166,0.0,0.0,88,0.00,,,0.00,Wunderground v.1.15,2013-08-07 01:44:00,
2013-08-06 21:50:00,61.1,57.8,30.03,SSW,202,1.0,2.0,89,0.00,,,0.00,Wunderground v.1.15,2013-08-07 01:50:00,
2013-08-06 21:56:00,61.1,57.8,30.03,SSW,202,2.0,2.0,89,0.00,,,0.00,Wunderground v.1.15,2013-08-07 01:56:00,
2013-08-06 22:02:00,61.3,57.7,30.03,SSW,202,1.0,1.0,88,0.00,,,0.00,Wunderground v.1.15,2013-08-07 02:02:00,
2013-08-06 22:08:00,60.9,57.3,30.03,SSW,202,0.0,1.0,88,0.00,,,0.00,Wunderground v.1.15,2013-08-07 02:08:00,
2013-08-06 22:14:00,60.4,56.8,30.03,SSW,202,0.0,3.0,88,0.00,,,0.00,Wunderground v.1.15,2013-08-07 02:14:00,
2013-08-06 22:20:00,60.0,56.7,30.04,WSW,242,1.0,1.0,89,0.00,,,0.00,Wunderground v.1.15,2013-08-07 02:20:00,
2013-08-06 22:26:00,59.8,56.6,30.03,WSW,242,0.0,1.0,89,0.00,,,0.00,Wunderground v.1.15,2013-08-07 02:26:00,
2013-08-06 22:32:00,59.8,56.9,30.03,SSE,156,0.0,2.0,90,0.00,,,0.00,Wunderground v.1.15,2013-08-07 02:32:00,
2013-08-06 22:38:00,59.9,57.3,30.03,SSE,156,1.0,2.0,91,0.00,,,0.00,Wunderground v.1.15,2013-08-07 02:38:00,
2013-08-06 22:44:00,60.1,57.2,30.03,WSW,246,0.0,1.0,90,0.00,,,0.00,Wunderground v.1.15,2013-08-07 02:44:00,
2013-08-06 22:50:00,60.1,57.2,30.03,SSW,209,2.0,2.0,90,0.00,,,0.00,Wunderground v.1.15,2013-08-07 02:50:00,
2013-08-06 22:56:00,60.2,57.3,30.03,SSW,209,1.0,2.0,90,0.00,,,0.00,Wunderground v.1.15,2013-08-07 02:56:00,
2013-08-06 23:02:00,60.3,57.4,30.03,WSW,242,0.0,4.0,90,0.00,,,0.00,Wunderground v.1.15,2013-08-07 03:02:00,
2013-08-06 23:08:00,60.6,58.0,30.04,SW,224,1.0,4.0,91,0.00,,,0.00,Wunderground v.1.15,2013-08-07 03:08:00,
2013-08-06 23:14:00,60.6,58.0,30.03,SW,224,0.0,1.0,91,0.00,,,0.00,Wunderground v.1.15,2013-08-07 03:14:00,
2013-08-06 23:20:00,60.9,58.3,30.03,SW,224,0.0,0.0,91,0.00,,,0.00,Wunderground v.1.15,2013-08-07 03:20:00,
2013-08-06 23:26:00,60.9,57.9,30.03,SW,224,0.0,0.0,90,0.00,,,0.00,Wunderground v.1.15,2013-08-07 03:26:00,
2013-08-06 23:32:00,61.0,58.0,30.03,SW,224,0.0,0.0,90,0.00,,,0.00,Wunderground v.1.15,2013-08-07 03:32:00,
2013-08-06 23:38:00,61.0,58.0,30.04,SW,224,0.0,0.0,90,0.00,,,0.00,Wunderground v.1.15,2013-08-07 03:38:00,
2013-08-06 23:44:00,61.0,58.0,30.04,SW,224,0.0,0.0,90,0.00,,,0.00,Wunderground v.1.15,2013-08-07 03:44:00,
2013-08-06 23:50:00,61.0,58.0,30.04,SW,224,0.0,0.0,90,0.00,,,0.00,Wunderground v.1.15,2013-08-07 03:50:00,
2013-08-06 23:56:00,60.9,57.9,30.04,SW,224,0.0,0.0,90,0.00,,,0.00,Wunderground v.1.15,2013-08-07 03:56:00,